createdAt,value
2018-07-28T00:01:28.472Z,11.00
2018-07-28T00:03:58.363Z,11.30
2018-07-28T00:06:27.809Z,10.57
2018-07-28T00:08:57.217Z,10.77
2018-07-28T00:11:26.868Z,11.40
2018-07-28T00:13:56.840Z,11.07
2018-07-28T00:16:26.807Z,11.93
2018-07-28T00:18:56.214Z,10.83
2018-07-28T00:21:25.604Z,11.50
2018-07-28T00:23:55.312Z,11.50
2018-07-28T00:26:25.473Z,10.60
2018-07-28T00:28:54.836Z,10.67
2018-07-28T00:31:24.846Z,11.03
2018-07-28T00:33:54.739Z,9.83
2018-07-28T00:36:24.108Z,10.57
2018-07-28T00:38:53.507Z,9.90
2018-07-28T00:41:23.461Z,9.10
2018-07-28T00:43:52.847Z,9.33
2018-07-28T00:46:22.245Z,9.97
2018-07-28T00:48:51.641Z,9.20
2018-07-28T00:51:21.024Z,8.50
2018-07-28T00:53:50.391Z,9.03
2018-07-28T00:56:19.800Z,8.20
2018-07-28T00:58:49.163Z,7.63
2018-07-28T01:01:19.696Z,8.10
2018-07-28T01:03:49.800Z,7.17
2018-07-28T01:06:19.787Z,8.47
2018-07-28T01:08:49.331Z,7.20
2018-07-28T01:11:19.880Z,7.77
2018-07-28T01:13:49.289Z,7.10
2018-07-28T01:16:19.329Z,6.73
2018-07-28T01:18:48.904Z,7.73
2018-07-28T01:21:18.607Z,8.20
2018-07-28T01:23:48.152Z,8.57
2018-07-28T01:26:17.553Z,8.17
2018-07-28T01:28:55.489Z,6.60
2018-07-28T01:31:25.225Z,7.40
2018-07-28T01:33:54.769Z,7.03
2018-07-28T01:36:24.512Z,7.37
2018-07-28T01:38:54.747Z,7.80
2018-07-28T01:41:24.386Z,8.13
2018-07-28T01:43:53.760Z,7.80
2018-07-28T01:46:28.196Z,7.20
2018-07-28T01:49:01.653Z,7.90
2018-07-28T01:51:31.668Z,8.20
2018-07-28T01:54:01.082Z,7.30
2018-07-28T01:56:30.766Z,7.33
2018-07-28T01:59:06.027Z,7.83
2018-07-28T02:01:37.384Z,7.07
2018-07-28T02:04:07.454Z,7.70
2018-07-28T02:06:36.994Z,8.50
2018-07-28T02:09:11.572Z,7.40
2018-07-28T02:11:41.671Z,8.50
2018-07-28T02:14:11.079Z,7.37
2018-07-28T02:16:40.566Z,7.47
2018-07-28T02:19:12.475Z,8.23
2018-07-28T02:21:43.789Z,7.90
2018-07-28T02:24:13.831Z,6.90
2018-07-28T02:26:43.262Z,7.10
2018-07-28T02:29:12.877Z,8.23
2018-07-28T02:31:42.633Z,6.87
2018-07-28T02:34:12.053Z,8.07
2018-07-28T02:36:41.460Z,7.23
2018-07-28T02:39:12.253Z,7.70
2018-07-28T02:41:41.929Z,8.83
2018-07-28T02:44:11.340Z,7.80
2018-07-28T02:46:40.726Z,8.50
2018-07-28T02:49:10.129Z,7.57
2018-07-28T02:51:39.575Z,8.00
2018-07-28T02:54:08.957Z,7.60
2018-07-28T02:56:38.324Z,6.80
2018-07-28T02:59:07.733Z,8.80
2018-07-28T03:01:37.750Z,7.13
2018-07-28T03:04:07.276Z,7.50
2018-07-28T03:06:36.672Z,6.87
2018-07-28T03:09:09.676Z,7.50
2018-07-28T03:11:39.600Z,7.80
2018-07-28T03:14:09.577Z,6.90
2018-07-28T03:16:39.306Z,5.87
2018-07-28T03:19:09.775Z,6.37
2018-07-28T03:21:39.138Z,7.00
2018-07-28T03:24:08.523Z,7.90
2018-07-28T03:26:37.894Z,7.30
2018-07-28T03:29:07.591Z,6.63
2018-07-28T03:31:38.097Z,7.50
2018-07-28T03:34:07.564Z,6.57
2018-07-28T03:36:37.255Z,7.67
2018-07-28T03:39:10.101Z,7.67
2018-07-28T03:41:40.874Z,6.97
2018-07-28T03:44:10.632Z,7.70
2018-07-28T03:46:40.054Z,7.10
2018-07-28T03:49:09.483Z,7.50
2018-07-28T03:51:39.371Z,8.27
2018-07-28T03:54:09.428Z,8.00
2018-07-28T03:56:39.754Z,7.87
2018-07-28T03:59:09.155Z,7.50
2018-07-28T04:01:38.530Z,8.90
2018-07-28T04:04:07.944Z,8.93
2018-07-28T04:06:37.582Z,8.03
2018-07-28T04:09:09.593Z,9.07
2018-07-28T04:11:40.906Z,8.27
2018-07-28T04:14:11.577Z,7.77
2018-07-28T04:16:41.463Z,8.50
2018-07-28T04:19:10.820Z,7.37
2018-07-28T04:21:40.203Z,7.20
2018-07-28T04:24:09.623Z,6.43
2018-07-28T04:26:39.151Z,7.13
2018-07-28T04:29:08.544Z,6.87
2018-07-28T04:31:37.933Z,7.27
2018-07-28T04:34:07.356Z,6.70
2018-07-28T04:36:36.724Z,7.33
2018-07-28T04:39:09.523Z,6.80
2018-07-28T04:41:40.020Z,6.73
2018-07-28T04:44:09.553Z,6.77
2018-07-28T04:46:38.909Z,6.80
2018-07-28T04:49:08.681Z,5.60
2018-07-28T04:51:38.916Z,6.07
2018-07-28T04:54:08.465Z,6.30
2018-07-28T04:56:37.849Z,6.00
2018-07-28T04:59:07.380Z,5.67
2018-07-28T05:01:37.004Z,6.87
2018-07-28T05:04:06.353Z,6.13
2018-07-28T05:06:35.781Z,6.60
2018-07-28T05:09:08.070Z,6.83
2018-07-28T05:11:38.547Z,5.80
2018-07-28T05:14:08.597Z,5.70
2018-07-28T05:16:37.960Z,6.40
2018-07-28T05:19:07.325Z,6.20
2018-07-28T05:21:37.829Z,6.00
2018-07-28T05:24:07.436Z,6.10
2018-07-28T05:26:37.164Z,6.17
2018-07-28T05:29:06.864Z,6.33
2018-07-28T05:31:36.953Z,6.17
2018-07-28T05:34:06.328Z,7.00
2018-07-28T05:36:35.692Z,6.50
2018-07-28T05:39:10.205Z,7.70
2018-07-28T05:41:41.036Z,6.90
2018-07-28T05:44:10.396Z,7.43
2018-07-28T05:46:39.724Z,7.33
2018-07-28T05:49:09.086Z,7.40
2018-07-28T05:51:38.963Z,7.00
2018-07-28T05:54:08.519Z,6.67
2018-07-28T05:56:37.876Z,8.53
2018-07-28T05:59:07.280Z,6.97
2018-07-28T06:01:36.626Z,7.53
2018-07-28T06:04:06.028Z,6.40
2018-07-28T06:06:35.368Z,7.30
2018-07-28T06:09:07.037Z,7.03
2018-07-28T06:11:37.356Z,7.30
2018-07-28T06:14:07.148Z,6.80
2018-07-28T06:16:37.107Z,7.30
2018-07-28T06:19:07.044Z,6.50
2018-07-28T06:21:36.427Z,7.30
2018-07-28T06:24:05.885Z,7.70
2018-07-28T06:26:35.276Z,8.27
2018-07-28T06:29:05.517Z,7.57
2018-07-28T06:31:35.422Z,8.30
2018-07-28T06:34:04.974Z,8.20
2018-07-28T06:36:38.111Z,7.70
2018-07-28T06:39:10.240Z,8.87
2018-07-28T06:41:40.728Z,8.70
2018-07-28T06:44:14.178Z,9.10
2018-07-28T06:46:44.144Z,7.60
2018-07-28T06:49:14.533Z,7.63
2018-07-28T06:51:43.924Z,7.87
2018-07-28T06:54:13.354Z,9.00
2018-07-28T06:56:42.723Z,8.70
2018-07-28T06:59:12.179Z,9.10
2018-07-28T07:01:41.889Z,8.67
2018-07-28T07:04:11.237Z,9.20
2018-07-28T07:06:40.628Z,8.63
2018-07-28T07:09:11.430Z,8.57
2018-07-28T07:11:40.947Z,8.17
2018-07-28T07:14:10.748Z,9.07
2018-07-28T07:16:40.441Z,8.60
2018-07-28T07:19:09.810Z,9.67
2018-07-28T07:21:39.406Z,9.20
2018-07-28T07:24:10.704Z,9.47
2018-07-28T07:26:43.193Z,9.10
2018-07-28T07:29:12.785Z,8.37
2018-07-28T07:31:42.883Z,8.17
2018-07-28T07:34:12.633Z,9.20
2018-07-28T07:36:43.075Z,8.20
2018-07-28T07:39:12.784Z,9.17
2018-07-28T07:41:42.479Z,9.30
2018-07-28T07:44:12.633Z,8.57
2018-07-28T07:46:42.020Z,9.90
2018-07-28T07:49:12.696Z,10.13
2018-07-28T07:51:46.208Z,8.87
2018-07-28T07:54:16.026Z,9.03
2018-07-28T07:56:45.904Z,9.87
2018-07-28T07:59:16.292Z,10.90
2018-07-28T08:01:47.169Z,9.30
2018-07-28T08:04:16.528Z,9.80
2018-07-28T08:06:46.557Z,11.00
2018-07-28T08:09:15.930Z,9.30
2018-07-28T08:11:45.275Z,8.63
2018-07-28T08:14:15.430Z,8.47
2018-07-28T08:16:44.759Z,8.70
2018-07-28T08:19:14.096Z,9.10
2018-07-28T08:21:44.271Z,9.70
2018-07-28T08:24:13.616Z,8.77
2018-07-28T08:26:44.194Z,9.93
2018-07-28T08:29:14.927Z,9.13
2018-07-28T08:31:44.287Z,9.43
2018-07-28T08:34:13.670Z,9.70
2018-07-28T08:36:43.032Z,9.60
2018-07-28T08:39:14.663Z,9.80
2018-07-28T08:41:44.545Z,9.60
2018-07-28T08:44:14.757Z,9.00
2018-07-28T08:46:44.421Z,10.13
2018-07-28T08:49:13.811Z,9.87
2018-07-28T08:51:43.331Z,9.37
2018-07-28T08:54:12.707Z,9.67
2018-07-28T08:56:42.075Z,10.17
2018-07-28T08:59:11.809Z,9.97
2018-07-28T09:01:41.201Z,9.73
2018-07-28T09:04:10.594Z,9.27
2018-07-28T09:06:39.946Z,9.33
2018-07-28T09:09:10.440Z,9.83
2018-07-28T09:11:39.860Z,10.63
2018-07-28T09:14:09.880Z,9.10
2018-07-28T09:16:40.212Z,9.10
2018-07-28T09:19:09.556Z,8.67
2018-07-28T09:21:38.937Z,8.80
2018-07-28T09:24:08.314Z,9.40
2018-07-28T09:26:38.624Z,7.77
2018-07-28T09:29:07.999Z,8.93
2018-07-28T09:31:37.367Z,9.60
2018-07-28T09:34:06.783Z,9.60
2018-07-28T09:36:36.154Z,8.30
2018-07-28T09:39:09.030Z,13.07
2018-07-28T09:41:38.417Z,8.70
2018-07-28T09:44:07.961Z,8.77
2018-07-28T09:46:37.632Z,8.73
2018-07-28T09:49:07.356Z,8.30
2018-07-28T09:51:37.707Z,8.63
2018-07-28T09:54:07.102Z,8.50
2018-07-28T09:56:39.023Z,8.73
2018-07-28T09:59:08.424Z,8.20
2018-07-28T10:01:37.760Z,9.50
2018-07-28T10:04:07.148Z,8.20
2018-07-28T10:06:36.796Z,8.30
2018-07-28T10:09:09.421Z,8.27
2018-07-28T10:11:39.545Z,9.17
2018-07-28T10:14:09.414Z,8.50
2018-07-28T10:16:38.818Z,8.33
2018-07-28T10:19:08.183Z,8.57
2018-07-28T10:21:37.585Z,8.50
2018-07-28T10:24:07.245Z,7.60
2018-07-28T10:26:36.697Z,8.13
2018-07-28T10:29:06.083Z,8.77
2018-07-28T10:31:35.810Z,8.20
2018-07-28T10:34:05.212Z,7.87
2018-07-28T10:36:36.264Z,7.83
2018-07-28T10:39:10.359Z,7.90
2018-07-28T10:41:39.767Z,8.27
2018-07-28T10:44:09.140Z,7.30
2018-07-28T10:46:38.484Z,7.73
2018-07-28T10:49:07.953Z,7.77
2018-07-28T10:51:37.327Z,7.33
2018-07-28T10:54:07.109Z,8.10
2018-07-28T10:56:36.837Z,7.23
2018-07-28T10:59:06.308Z,7.60
2018-07-28T11:01:39.169Z,7.83
2018-07-28T11:04:08.565Z,8.53
2018-07-28T11:06:37.970Z,8.17
2018-07-28T11:09:09.391Z,8.47
2018-07-28T11:11:39.989Z,8.00
2018-07-28T11:14:09.989Z,7.43
2018-07-28T11:16:39.736Z,7.23
2018-07-28T11:19:09.210Z,8.00
2018-07-28T11:21:39.466Z,7.87
2018-07-28T11:24:09.956Z,7.70
2018-07-28T11:26:40.084Z,7.00
2018-07-28T11:29:09.444Z,7.47
2018-07-28T11:31:50.047Z,9.47
2018-07-28T11:34:30.590Z,7.70
2018-07-28T11:37:13.007Z,6.93
2018-07-28T11:39:53.320Z,7.20
2018-07-28T11:42:37.971Z,7.47
2018-07-28T11:45:16.558Z,7.37
2018-07-28T11:47:45.928Z,7.43
2018-07-28T11:50:15.336Z,7.00
2018-07-28T11:52:45.100Z,7.70
2018-07-28T11:55:16.928Z,6.77
2018-07-28T11:57:46.349Z,7.83
2018-07-28T12:00:15.921Z,8.00
2018-07-28T12:02:45.309Z,7.07
2018-07-28T12:05:14.677Z,7.47
2018-07-28T12:07:45.397Z,7.30
2018-07-28T12:10:14.809Z,6.57
2018-07-28T12:12:47.612Z,6.77
2018-07-28T12:15:18.137Z,7.33
2018-07-28T12:17:47.586Z,6.33
2018-07-28T12:20:17.015Z,6.07
2018-07-28T12:22:46.387Z,7.00
2018-07-28T12:25:16.157Z,6.80
2018-07-28T12:27:46.179Z,8.60
2018-07-28T12:30:16.076Z,6.27
2018-07-28T12:32:46.284Z,7.20
2018-07-28T12:35:15.632Z,6.73
2018-07-28T12:37:45.636Z,6.10
2018-07-28T12:40:15.336Z,6.43
2018-07-28T12:42:44.737Z,7.57
2018-07-28T12:45:14.682Z,6.80
2018-07-28T12:47:44.068Z,6.47
2018-07-28T12:50:13.434Z,6.77
2018-07-28T12:52:43.663Z,5.73
2018-07-28T12:55:13.105Z,6.27
2018-07-28T12:57:42.627Z,5.87
2018-07-28T13:00:11.997Z,6.43
2018-07-28T13:02:42.903Z,6.30
2018-07-28T13:05:12.303Z,7.23
2018-07-28T13:07:41.757Z,7.00
2018-07-28T13:10:11.305Z,7.40
2018-07-28T13:12:40.829Z,7.30
2018-07-28T13:15:10.215Z,6.57
2018-07-28T13:17:40.271Z,7.40
2018-07-28T13:20:09.644Z,7.13
2018-07-28T13:22:40.341Z,6.83
2018-07-28T13:25:09.752Z,6.37
2018-07-28T13:27:39.696Z,6.97
2018-07-28T13:30:10.054Z,6.47
2018-07-28T13:32:39.422Z,6.30
2018-07-28T13:35:08.816Z,5.87
2018-07-28T13:37:38.931Z,6.17
2018-07-28T13:40:08.540Z,6.90
2018-07-28T13:42:38.605Z,6.93
2018-07-28T13:45:08.416Z,6.37
2018-07-28T13:47:37.806Z,6.87
2018-07-28T13:50:07.535Z,6.53
2018-07-28T13:52:36.925Z,7.27
2018-07-28T13:55:08.945Z,7.20
2018-07-28T13:57:38.356Z,7.00
2018-07-28T14:00:08.293Z,7.90
2018-07-28T14:02:37.669Z,6.40
2018-07-28T14:05:07.101Z,6.00
2018-07-28T14:07:37.293Z,5.70
2018-07-28T14:10:07.708Z,6.47
2018-07-28T14:12:38.056Z,6.90
2018-07-28T14:15:08.766Z,6.57
2018-07-28T14:17:38.424Z,6.80
2018-07-28T14:20:08.173Z,6.67
2018-07-28T14:22:38.104Z,5.23
2018-07-28T14:25:08.150Z,6.90
2018-07-28T14:27:39.768Z,7.40
2018-07-28T14:30:09.920Z,6.07
2018-07-28T14:32:39.265Z,5.63
2018-07-28T14:35:08.976Z,6.40
2018-07-28T14:37:40.896Z,6.10
2018-07-28T14:40:10.424Z,5.57
2018-07-28T14:42:40.874Z,7.27
2018-07-28T14:45:11.224Z,6.60
2018-07-28T14:47:40.852Z,6.43
2018-07-28T14:50:10.229Z,6.00
2018-07-28T14:52:39.590Z,6.37
2018-07-28T14:55:09.098Z,6.10
2018-07-28T14:57:39.843Z,6.37
2018-07-28T15:00:10.023Z,7.43
2018-07-28T15:02:39.401Z,7.57
2018-07-28T15:05:09.113Z,8.93
2018-07-28T15:07:38.486Z,6.70
2018-07-28T15:10:08.161Z,7.20
2018-07-28T15:12:38.486Z,7.83
2018-07-28T15:15:08.846Z,6.67
2018-07-28T15:17:40.011Z,8.10
2018-07-28T15:20:09.388Z,6.70
2018-07-28T15:22:38.749Z,6.67
2018-07-28T15:25:08.452Z,7.43
2018-07-28T15:27:38.024Z,7.40
2018-07-28T15:30:08.338Z,6.03
2018-07-28T15:32:37.686Z,7.00
2018-07-28T15:35:07.072Z,7.10
2018-07-28T15:37:37.751Z,7.17
2018-07-28T15:40:07.176Z,8.40
2018-07-28T15:42:38.530Z,8.10
2018-07-28T15:45:08.983Z,7.30
2018-07-28T15:47:38.344Z,7.03
2018-07-28T15:50:08.074Z,7.63
2018-07-28T15:52:37.420Z,7.70
2018-07-28T15:55:07.251Z,7.60
2018-07-28T15:57:36.621Z,7.30
2018-07-28T16:00:06.473Z,7.87
2018-07-28T16:02:35.865Z,8.30
2018-07-28T16:05:06.017Z,9.93
2018-07-28T16:07:35.855Z,7.73
2018-07-28T16:10:06.808Z,7.87
2018-07-28T16:12:36.791Z,7.13
2018-07-28T16:15:07.579Z,6.43
2018-07-28T16:17:37.049Z,7.87
2018-07-28T16:20:06.718Z,7.87
2018-07-28T16:22:36.231Z,8.33
2018-07-28T16:25:06.678Z,9.20
2018-07-28T16:27:36.570Z,8.17
2018-07-28T16:30:08.500Z,6.93
2018-07-28T16:32:37.932Z,8.57
2018-07-28T16:35:08.519Z,7.23
2018-07-28T16:37:40.596Z,7.23
2018-07-28T16:40:12.017Z,8.63
2018-07-28T16:42:42.521Z,7.57
2018-07-28T16:45:11.919Z,7.70
2018-07-28T16:47:41.302Z,7.57
2018-07-28T16:50:11.064Z,8.10
2018-07-28T16:52:40.649Z,11.20
2018-07-28T16:55:10.748Z,7.37
2018-07-28T16:57:40.097Z,8.07
2018-07-28T17:00:10.861Z,7.50
2018-07-28T17:02:40.660Z,7.60
2018-07-28T17:05:11.111Z,7.03
2018-07-28T17:07:40.870Z,8.33
2018-07-28T17:10:10.468Z,8.10
2018-07-28T17:12:41.178Z,7.97
2018-07-28T17:15:11.572Z,9.00
2018-07-28T17:17:40.953Z,8.30
2018-07-28T17:20:10.361Z,8.17
2018-07-28T17:22:40.243Z,8.03
2018-07-28T17:25:09.721Z,7.10
2018-07-28T17:27:42.880Z,8.70
2018-07-28T17:30:12.280Z,8.40
2018-07-28T17:32:42.589Z,7.90
2018-07-28T17:35:12.525Z,8.07
2018-07-28T17:37:43.480Z,8.47
2018-07-28T17:40:12.886Z,7.80
2018-07-28T17:42:42.255Z,8.23
2018-07-28T17:45:12.211Z,7.60
2018-07-28T17:47:41.583Z,7.90
2018-07-28T17:50:11.015Z,7.37
2018-07-28T17:52:42.310Z,7.60
2018-07-28T17:55:11.805Z,7.60
2018-07-28T17:57:41.532Z,7.53
2018-07-28T18:00:11.775Z,8.37
2018-07-28T18:02:42.591Z,7.63
2018-07-28T18:05:12.094Z,7.20
2018-07-28T18:07:43.112Z,7.83
2018-07-28T18:10:12.485Z,7.30
2018-07-28T18:12:41.835Z,7.30
2018-07-28T18:15:11.794Z,8.10
2018-07-28T18:17:41.229Z,8.77
2018-07-28T18:20:11.652Z,9.07
2018-07-28T18:22:41.099Z,8.10
2018-07-28T18:25:11.901Z,9.20
2018-07-28T18:27:42.138Z,8.30
2018-07-28T18:30:11.588Z,8.30
2018-07-28T18:32:41.128Z,7.93
2018-07-28T18:35:10.854Z,8.07
2018-07-28T18:37:40.234Z,8.20
2018-07-28T18:40:10.587Z,7.70
2018-07-28T18:42:40.053Z,7.87
2018-07-28T18:45:12.833Z,9.23
2018-07-28T18:47:42.236Z,7.93
2018-07-28T18:50:16.448Z,7.63
2018-07-28T18:52:46.055Z,8.10
2018-07-28T18:55:15.813Z,8.43
2018-07-28T18:57:45.989Z,8.50
2018-07-28T19:00:17.379Z,9.07
2018-07-28T19:02:47.955Z,10.53
2018-07-28T19:05:18.625Z,9.10
2018-07-28T19:07:53.296Z,10.00
2018-07-28T19:10:35.289Z,10.93
2018-07-28T19:13:10.196Z,10.60
2018-07-28T19:15:39.868Z,11.57
2018-07-28T19:18:14.483Z,9.10
2018-07-28T19:20:44.769Z,9.40
2018-07-28T19:23:19.436Z,10.40
2018-07-28T19:25:49.530Z,9.73
2018-07-28T19:28:24.112Z,10.30
2018-07-28T19:30:53.568Z,10.20
2018-07-28T19:33:23.098Z,11.40
2018-07-28T19:35:59.270Z,9.50
2018-07-28T19:38:29.271Z,10.70
2018-07-28T19:40:59.410Z,9.53
2018-07-28T19:43:29.589Z,9.87
2018-07-28T19:45:59.962Z,9.03
2018-07-28T19:48:30.334Z,10.07
2018-07-28T19:51:04.948Z,9.87
2018-07-28T19:53:34.373Z,10.33
2018-07-28T19:56:04.454Z,11.00
2018-07-28T19:58:39.549Z,9.30
2018-07-28T20:01:13.730Z,10.87
2018-07-28T20:03:44.139Z,11.23
2018-07-28T20:06:13.984Z,10.20
2018-07-28T20:08:45.410Z,9.80
2018-07-28T20:11:15.592Z,10.70
2018-07-28T20:13:45.413Z,10.30
2018-07-28T20:16:14.996Z,9.63
2018-07-28T20:18:45.720Z,8.70
2018-07-28T20:21:15.908Z,9.70
2018-07-28T20:23:45.270Z,10.03
2018-07-28T20:26:15.413Z,9.17
2018-07-28T20:28:45.466Z,11.50
2018-07-28T20:31:14.832Z,9.00
2018-07-28T20:33:44.198Z,8.80
2018-07-28T20:36:17.856Z,9.10
2018-07-28T20:38:47.677Z,9.40
2018-07-28T20:41:19.713Z,10.07
2018-07-28T20:43:49.397Z,9.40
2018-07-28T20:46:18.788Z,9.40
2018-07-28T20:48:49.047Z,9.50
2018-07-28T20:51:19.754Z,9.63
2018-07-28T20:53:49.110Z,8.50
2018-07-28T20:56:18.463Z,9.60
2018-07-28T20:58:48.403Z,9.87
2018-07-28T21:01:21.601Z,9.90
2018-07-28T21:03:51.315Z,9.80
2018-07-28T21:06:21.371Z,8.57
2018-07-28T21:08:50.789Z,8.60
2018-07-28T21:11:20.145Z,8.90
2018-07-28T21:13:49.514Z,9.27
2018-07-28T21:16:23.303Z,11.83
2018-07-28T21:18:52.925Z,10.07
2018-07-28T21:21:22.271Z,10.17
2018-07-28T21:23:51.644Z,9.67
2018-07-28T21:26:21.041Z,9.30
2018-07-28T21:28:50.442Z,10.20
2018-07-28T21:31:19.816Z,9.80
2018-07-28T21:33:49.606Z,9.50
2018-07-28T21:36:19.016Z,7.80
2018-07-28T21:38:48.414Z,9.67
2018-07-28T21:41:17.839Z,8.30
2018-07-28T21:43:47.241Z,10.17
2018-07-28T21:46:16.619Z,8.80
2018-07-28T21:48:45.974Z,9.37
2018-07-28T21:51:15.889Z,9.07
2018-07-28T21:53:45.317Z,8.57
2018-07-28T21:56:14.764Z,8.63
2018-07-28T21:58:44.136Z,9.40
2018-07-28T22:01:16.470Z,9.00
2018-07-28T22:03:46.157Z,9.13
2018-07-28T22:06:15.533Z,9.77
2018-07-28T22:08:44.912Z,9.40
2018-07-28T22:11:14.922Z,9.43
2018-07-28T22:13:44.530Z,8.73
2018-07-28T22:16:13.943Z,8.93
2018-07-28T22:18:43.797Z,9.13
2018-07-28T22:21:13.687Z,9.90
2018-07-28T22:23:43.657Z,11.03
2018-07-28T22:26:13.064Z,11.00
2018-07-28T22:28:42.536Z,10.60
2018-07-28T22:31:14.188Z,11.00
2018-07-28T22:33:43.589Z,10.00
2018-07-28T22:36:13.241Z,10.23
2018-07-28T22:38:42.652Z,9.77
2018-07-28T22:41:12.540Z,10.10
2018-07-28T22:43:42.127Z,10.17
2018-07-28T22:46:11.611Z,9.40
2018-07-28T22:48:41.132Z,10.43
2018-07-28T22:51:11.184Z,9.77
2018-07-28T22:53:40.625Z,9.23
2018-07-28T22:56:10.276Z,9.90
2018-07-28T22:58:39.629Z,8.83
2018-07-28T23:01:09.339Z,9.33
2018-07-28T23:03:38.911Z,10.40
2018-07-28T23:06:08.315Z,9.53
2018-07-28T23:08:38.242Z,9.23
2018-07-28T23:11:07.979Z,8.37
2018-07-28T23:13:38.833Z,7.97
2018-07-28T23:16:08.196Z,8.33
2018-07-28T23:18:37.604Z,8.33
2018-07-28T23:21:07.646Z,8.27
2018-07-28T23:23:37.001Z,8.77
2018-07-28T23:26:06.387Z,7.80
2018-07-28T23:28:35.750Z,7.80
2018-07-28T23:31:05.559Z,7.00
2018-07-28T23:33:34.919Z,7.90
2018-07-28T23:36:05.483Z,7.07
2018-07-28T23:38:34.855Z,6.60
2018-07-28T23:41:04.517Z,7.53
2018-07-28T23:43:33.973Z,7.00
2018-07-28T23:46:03.380Z,7.30
2018-07-28T23:48:32.824Z,7.10
2018-07-28T23:51:02.285Z,7.20
2018-07-28T23:53:31.786Z,6.83
2018-07-28T23:56:01.774Z,6.73
2018-07-28T23:58:32.891Z,5.87
